createdAt,value
2023-05-20T00:01:40.407Z,1.67
2023-05-20T00:04:07.364Z,1.77
2023-05-20T00:06:34.944Z,1.60
2023-05-20T00:09:01.744Z,1.52
2023-05-20T00:11:28.699Z,1.90
2023-05-20T00:13:55.481Z,1.75
2023-05-20T00:16:22.270Z,1.83
2023-05-20T00:18:49.134Z,1.90
2023-05-20T00:21:16.013Z,1.55
2023-05-20T00:23:42.840Z,1.83
2023-05-20T00:26:09.602Z,1.98
2023-05-20T00:28:36.733Z,1.88
2023-05-20T00:31:03.613Z,1.80
2023-05-20T00:33:30.781Z,1.70
2023-05-20T00:35:57.510Z,1.60
2023-05-20T00:38:24.270Z,1.80
2023-05-20T00:40:51.009Z,1.58
2023-05-20T00:43:17.739Z,1.75
2023-05-20T00:45:44.492Z,1.85
2023-05-20T00:48:11.432Z,1.60
2023-05-20T00:50:38.768Z,1.90
2023-05-20T00:53:06.522Z,1.80
2023-05-20T00:55:33.549Z,2.00
2023-05-20T00:58:00.715Z,1.70
2023-05-20T01:00:27.457Z,2.00
2023-05-20T01:02:55.645Z,1.80
2023-05-20T01:05:22.425Z,1.90
2023-05-20T01:07:49.164Z,2.10
2023-05-20T01:10:15.967Z,2.05
2023-05-20T01:12:54.230Z,1.80
2023-05-20T01:15:23.772Z,1.50
2023-05-20T01:17:58.019Z,2.25
2023-05-20T01:20:25.613Z,2.10
2023-05-20T01:22:56.896Z,1.88
2023-05-20T01:25:25.119Z,2.10
2023-05-20T01:27:54.199Z,1.80
2023-05-20T01:30:22.032Z,2.00
2023-05-20T01:32:52.663Z,1.70
2023-05-20T01:35:20.782Z,2.00
2023-05-20T01:37:52.199Z,1.95
2023-05-20T01:40:21.151Z,1.98
2023-05-20T01:42:52.970Z,1.83
2023-05-20T01:45:20.192Z,1.70
2023-05-20T01:47:47.246Z,1.90
2023-05-20T01:50:14.007Z,2.22
2023-05-20T01:52:40.799Z,2.13
2023-05-20T01:55:07.821Z,2.10
2023-05-20T01:57:34.643Z,1.90
2023-05-20T02:00:01.774Z,1.90
2023-05-20T02:02:28.702Z,1.80
2023-05-20T02:04:55.819Z,1.92
2023-05-20T02:07:22.593Z,2.05
2023-05-20T02:09:49.551Z,1.83
2023-05-20T02:12:16.929Z,1.90
2023-05-20T02:14:45.506Z,1.80
2023-05-20T02:17:14.518Z,2.10
2023-05-20T02:19:42.831Z,2.00
2023-05-20T02:22:09.682Z,1.95
2023-05-20T02:24:36.430Z,2.00
2023-05-20T02:27:04.779Z,2.17
2023-05-20T02:29:33.911Z,1.90
2023-05-20T02:32:00.889Z,2.10
2023-05-20T02:34:30.365Z,2.10
2023-05-20T02:36:57.442Z,2.13
2023-05-20T02:39:24.729Z,2.10
2023-05-20T02:41:51.467Z,1.88
2023-05-20T02:44:18.195Z,2.00
2023-05-20T02:46:44.939Z,1.90
2023-05-20T02:49:11.729Z,2.10
2023-05-20T02:51:38.499Z,2.00
2023-05-20T02:54:05.418Z,2.00
2023-05-20T02:56:32.580Z,2.00
2023-05-20T02:59:01.694Z,1.98
2023-05-20T03:01:29.132Z,2.03
2023-05-20T03:03:56.022Z,2.00
2023-05-20T03:06:22.793Z,2.08
2023-05-20T03:08:49.833Z,2.22
2023-05-20T03:11:16.693Z,2.40
2023-05-20T03:13:43.417Z,1.92
2023-05-20T03:16:13.115Z,1.88
2023-05-20T03:18:40.087Z,2.33
2023-05-20T03:21:06.866Z,1.90
2023-05-20T03:23:33.710Z,2.10
2023-05-20T03:26:00.662Z,2.00
2023-05-20T03:28:27.962Z,2.10
2023-05-20T03:30:55.171Z,2.08
2023-05-20T03:33:22.796Z,2.30
2023-05-20T03:35:49.493Z,2.55
2023-05-20T03:38:16.480Z,2.25
2023-05-20T03:40:43.192Z,2.50
2023-05-20T03:43:10.067Z,2.40
2023-05-20T03:45:37.125Z,2.35
2023-05-20T03:48:07.028Z,2.50
2023-05-20T03:50:35.495Z,2.42
2023-05-20T03:53:02.460Z,2.63
2023-05-20T03:55:36.295Z,2.50
2023-05-20T03:58:03.922Z,2.63
2023-05-20T04:00:32.127Z,2.50
2023-05-20T04:02:59.402Z,2.80
2023-05-20T04:05:26.925Z,2.60
2023-05-20T04:07:57.422Z,2.80
2023-05-20T04:10:25.020Z,2.55
2023-05-20T04:12:52.403Z,2.63
2023-05-20T04:15:20.035Z,2.65
2023-05-20T04:17:53.130Z,2.60
2023-05-20T04:20:20.060Z,3.00
2023-05-20T04:22:46.818Z,2.92
2023-05-20T04:25:14.000Z,2.85
2023-05-20T04:27:40.964Z,3.00
2023-05-20T04:30:08.026Z,3.13
2023-05-20T04:32:39.319Z,2.78
2023-05-20T04:35:11.486Z,3.15
2023-05-20T04:37:42.304Z,2.88
2023-05-20T04:40:09.888Z,3.30
2023-05-20T04:42:37.913Z,3.00
2023-05-20T04:45:05.958Z,3.30
2023-05-20T04:47:39.237Z,3.42
2023-05-20T04:50:11.214Z,3.60
2023-05-20T04:52:41.933Z,3.15
2023-05-20T04:55:10.279Z,3.40
2023-05-20T04:57:41.827Z,3.70
2023-05-20T05:00:10.721Z,3.53
2023-05-20T05:02:38.009Z,3.67
2023-05-20T05:05:05.182Z,3.75
2023-05-20T05:07:32.192Z,3.70
2023-05-20T05:09:58.903Z,4.07
2023-05-20T05:12:27.616Z,4.10
2023-05-20T05:14:54.318Z,3.80
2023-05-20T05:17:21.091Z,4.20
2023-05-20T05:19:47.820Z,4.68
2023-05-20T05:22:14.523Z,3.85
2023-05-20T05:24:41.295Z,4.00
2023-05-20T05:27:08.086Z,4.38
2023-05-20T05:29:34.887Z,4.55
2023-05-20T05:32:01.709Z,4.47
2023-05-20T05:34:28.640Z,4.47
2023-05-20T05:36:55.522Z,4.38
2023-05-20T05:39:22.344Z,4.00
2023-05-20T05:41:49.118Z,4.75
2023-05-20T05:44:17.200Z,5.03
2023-05-20T05:46:44.340Z,4.97
2023-05-20T05:49:11.261Z,4.43
2023-05-20T05:51:39.097Z,4.68
2023-05-20T05:54:06.205Z,4.35
2023-05-20T05:56:32.970Z,4.28
2023-05-20T05:58:59.855Z,4.90
2023-05-20T06:01:27.164Z,4.15
2023-05-20T06:03:54.246Z,4.47
2023-05-20T06:06:21.091Z,4.13
2023-05-20T06:08:48.425Z,4.90
2023-05-20T06:11:16.358Z,5.00
2023-05-20T06:13:43.240Z,4.93
2023-05-20T06:16:10.046Z,4.30
2023-05-20T06:18:36.845Z,4.40
2023-05-20T06:21:05.262Z,4.72
2023-05-20T06:23:32.409Z,4.40
2023-05-20T06:26:03.646Z,4.57
2023-05-20T06:28:31.048Z,4.40
2023-05-20T06:30:57.962Z,4.18
2023-05-20T06:33:27.900Z,4.40
2023-05-20T06:35:59.214Z,4.80
2023-05-20T06:38:26.023Z,5.07
2023-05-20T06:40:52.878Z,4.72
2023-05-20T06:43:19.774Z,4.53
2023-05-20T06:45:54.130Z,4.80
2023-05-20T06:48:26.913Z,4.53
2023-05-20T06:50:53.914Z,4.50
2023-05-20T06:53:21.417Z,4.20
2023-05-20T06:55:48.209Z,4.43
2023-05-20T06:58:15.128Z,4.53
2023-05-20T07:00:43.151Z,4.60
2023-05-20T07:03:11.664Z,4.55
2023-05-20T07:05:38.523Z,4.45
2023-05-20T07:08:06.574Z,4.30
2023-05-20T07:10:33.543Z,4.53
2023-05-20T07:13:00.537Z,4.78
2023-05-20T07:15:27.304Z,4.50
2023-05-20T07:17:54.219Z,4.60
2023-05-20T07:20:21.275Z,4.55
2023-05-20T07:22:50.701Z,4.40
2023-05-20T07:25:39.614Z,4.32
2023-05-20T07:28:06.380Z,4.47
2023-05-20T07:30:33.143Z,4.53
2023-05-20T07:33:29.866Z,4.10
2023-05-20T07:35:56.958Z,4.47
2023-05-20T07:38:23.697Z,4.22
2023-05-20T07:40:56.826Z,4.72
2023-05-20T07:43:24.308Z,5.00
2023-05-20T07:45:51.063Z,4.82
2023-05-20T07:48:17.920Z,4.47
2023-05-20T07:50:45.006Z,4.45
2023-05-20T07:53:12.281Z,4.22
2023-05-20T07:55:39.554Z,4.22
2023-05-20T07:58:07.031Z,4.20
2023-05-20T08:00:35.961Z,4.80
2023-05-20T08:03:07.939Z,4.43
2023-05-20T08:05:59.564Z,4.60
2023-05-20T08:08:26.816Z,4.70
2023-05-20T08:10:58.225Z,4.47
2023-05-20T08:13:26.716Z,4.35
2023-05-20T08:15:57.033Z,4.25
2023-05-20T08:18:27.426Z,4.30
2023-05-20T08:20:54.194Z,4.32
2023-05-20T08:23:21.052Z,4.50
2023-05-20T08:25:48.396Z,4.22
2023-05-20T08:28:16.610Z,4.57
2023-05-20T08:30:43.688Z,4.60
2023-05-20T08:33:10.946Z,4.10
2023-05-20T08:35:39.508Z,4.10
2023-05-20T08:38:06.961Z,4.28
2023-05-20T08:40:37.256Z,3.92
2023-05-20T08:43:05.005Z,4.03
2023-05-20T08:45:33.934Z,4.30
2023-05-20T08:48:06.067Z,3.92
2023-05-20T08:50:33.146Z,3.50
2023-05-20T08:53:00.440Z,3.70
2023-05-20T08:55:48.898Z,3.70
2023-05-20T08:58:16.299Z,3.80
2023-05-20T09:00:43.233Z,3.88
2023-05-20T09:03:10.078Z,3.47
2023-05-20T09:05:37.093Z,3.58
2023-05-20T09:08:11.386Z,3.80
2023-05-20T09:10:40.337Z,3.50
2023-05-20T09:13:08.466Z,3.38
2023-05-20T09:15:36.670Z,3.22
2023-05-20T09:18:05.572Z,3.03
2023-05-20T09:20:37.492Z,3.15
2023-05-20T09:23:10.080Z,2.95
2023-05-20T09:25:37.488Z,3.20
2023-05-20T09:28:08.644Z,3.30
2023-05-20T09:30:35.664Z,3.00
2023-05-20T09:33:05.207Z,2.90
2023-05-20T09:35:37.532Z,2.60
2023-05-20T09:38:07.950Z,3.10
2023-05-20T09:40:37.665Z,3.00
2023-05-20T09:43:07.352Z,2.75
2023-05-20T09:45:34.804Z,2.90
2023-05-20T09:48:02.912Z,3.00
2023-05-20T09:50:31.613Z,2.90
2023-05-20T09:53:02.718Z,2.90
2023-05-20T09:55:30.776Z,2.47
2023-05-20T09:58:01.931Z,2.80
2023-05-20T10:00:28.768Z,2.80
2023-05-20T10:02:55.749Z,2.80
2023-05-20T10:05:33.396Z,2.83
2023-05-20T10:08:18.844Z,2.42
2023-05-20T10:10:51.048Z,2.90
2023-05-20T10:13:42.781Z,2.58
2023-05-20T10:16:46.975Z,2.65
2023-05-20T10:19:35.472Z,2.45
2023-05-20T10:22:03.341Z,2.80
2023-05-20T10:24:35.405Z,2.80
2023-05-20T10:27:04.072Z,2.33
2023-05-20T10:29:43.113Z,2.40
2023-05-20T10:32:09.884Z,2.42
2023-05-20T10:34:47.997Z,2.50
2023-05-20T10:37:39.891Z,2.60
2023-05-20T10:40:08.213Z,2.58
2023-05-20T10:42:35.101Z,2.35
2023-05-20T10:45:03.200Z,2.50
2023-05-20T10:47:31.065Z,2.55
2023-05-20T10:49:58.233Z,2.45
2023-05-20T10:52:25.515Z,2.30
2023-05-20T10:54:57.530Z,2.55
2023-05-20T10:57:26.368Z,2.10
2023-05-20T10:59:53.615Z,2.50
2023-05-20T11:02:27.082Z,2.42
2023-05-20T11:04:56.650Z,2.38
2023-05-20T11:07:28.163Z,2.67
2023-05-20T11:09:58.633Z,2.42
2023-05-20T11:12:27.176Z,2.10
2023-05-20T11:14:54.355Z,2.10
2023-05-20T11:17:21.443Z,2.30
2023-05-20T11:19:48.606Z,2.35
2023-05-20T11:22:15.517Z,2.70
2023-05-20T11:24:42.334Z,2.22
2023-05-20T11:27:09.490Z,2.45
2023-05-20T11:29:36.372Z,2.63
2023-05-20T11:32:03.260Z,2.10
2023-05-20T11:34:34.883Z,2.38
2023-05-20T11:37:02.471Z,2.38
2023-05-20T11:39:32.907Z,2.10
2023-05-20T11:41:59.690Z,2.50
2023-05-20T11:44:26.487Z,2.00
2023-05-20T11:47:00.545Z,2.50
2023-05-20T11:49:27.635Z,2.00
2023-05-20T11:51:54.363Z,2.50
2023-05-20T11:54:23.970Z,2.45
2023-05-20T11:56:50.751Z,2.47
2023-05-20T11:59:17.585Z,2.42
2023-05-20T12:01:44.413Z,2.30
2023-05-20T12:04:14.761Z,2.10
2023-05-20T12:06:42.842Z,2.10
2023-05-20T12:09:10.350Z,2.45
2023-05-20T12:11:40.559Z,2.33
2023-05-20T12:14:08.477Z,2.58
2023-05-20T12:16:37.439Z,2.20
2023-05-20T12:19:04.724Z,2.15
2023-05-20T12:21:32.077Z,2.30
2023-05-20T12:24:02.061Z,2.55
2023-05-20T12:26:29.958Z,2.20
2023-05-20T12:28:57.124Z,2.10
2023-05-20T12:31:25.209Z,2.40
2023-05-20T12:33:52.040Z,2.03
2023-05-20T12:36:19.606Z,2.30
2023-05-20T12:38:46.663Z,2.40
2023-05-20T12:41:13.452Z,2.40
2023-05-20T12:43:40.209Z,2.53
2023-05-20T12:46:07.094Z,2.55
2023-05-20T12:48:33.797Z,2.33
2023-05-20T12:51:00.563Z,2.20
2023-05-20T12:53:27.419Z,2.40
2023-05-20T12:55:54.231Z,2.33
2023-05-20T12:58:21.001Z,2.42
2023-05-20T13:00:47.757Z,3.05
2023-05-20T13:03:14.978Z,3.05
2023-05-20T13:05:41.887Z,2.70
2023-05-20T13:08:10.084Z,3.00
2023-05-20T13:10:37.177Z,2.83
2023-05-20T13:13:04.354Z,2.90
2023-05-20T13:15:33.068Z,3.00
2023-05-20T13:18:01.562Z,3.40
2023-05-20T13:20:29.524Z,3.13
2023-05-20T13:22:56.288Z,3.00
2023-05-20T13:25:23.005Z,3.33
2023-05-20T13:27:49.705Z,3.90
2023-05-20T13:30:16.503Z,3.95
2023-05-20T13:32:43.245Z,3.90
2023-05-20T13:35:10.146Z,3.47
2023-05-20T13:37:36.890Z,4.10
2023-05-20T13:40:03.890Z,3.80
2023-05-20T13:42:30.598Z,3.95
2023-05-20T13:44:57.290Z,4.40
2023-05-20T13:47:24.048Z,3.53
2023-05-20T13:49:50.835Z,3.90
2023-05-20T13:52:17.595Z,4.20
2023-05-20T13:54:46.705Z,4.32
2023-05-20T13:57:13.530Z,4.30
2023-05-20T13:59:40.329Z,3.92
2023-05-20T14:02:07.475Z,4.05
2023-05-20T14:04:39.631Z,4.13
2023-05-20T14:07:09.402Z,4.57
2023-05-20T14:09:36.759Z,4.68
2023-05-20T14:12:03.989Z,4.07
2023-05-20T14:14:30.778Z,4.22
2023-05-20T14:16:57.559Z,4.40
2023-05-20T14:19:24.435Z,4.35
2023-05-20T14:21:51.666Z,4.40
2023-05-20T14:24:18.400Z,4.63
2023-05-20T14:26:45.106Z,4.60
2023-05-20T14:29:11.851Z,4.72
2023-05-20T14:31:39.316Z,4.90
2023-05-20T14:34:06.170Z,4.88
2023-05-20T14:36:32.982Z,4.78
2023-05-20T14:38:59.682Z,5.07
2023-05-20T14:41:26.380Z,4.85
2023-05-20T14:43:53.081Z,4.97
2023-05-20T14:46:19.861Z,5.05
2023-05-20T14:48:46.640Z,5.00
2023-05-20T14:51:13.405Z,4.68
2023-05-20T14:53:40.241Z,5.40
2023-05-20T14:56:06.965Z,5.88
2023-05-20T14:58:33.689Z,6.53
2023-05-20T15:01:00.392Z,6.40
2023-05-20T15:03:28.043Z,6.68
2023-05-20T15:05:54.881Z,6.68
2023-05-20T15:08:21.626Z,6.90
2023-05-20T15:10:48.413Z,7.00
2023-05-20T15:13:15.143Z,6.32
2023-05-20T15:15:41.828Z,6.28
2023-05-20T15:18:08.608Z,6.53
2023-05-20T15:20:35.327Z,6.18
2023-05-20T15:23:02.102Z,6.50
2023-05-20T15:25:28.858Z,5.93
2023-05-20T15:27:55.623Z,6.50
2023-05-20T15:30:22.847Z,6.15
2023-05-20T15:32:49.765Z,6.40
2023-05-20T15:35:16.699Z,5.90
2023-05-20T15:37:43.445Z,6.43
2023-05-20T15:40:11.245Z,5.78
2023-05-20T15:42:37.976Z,5.90
2023-05-20T15:45:04.934Z,5.88
2023-05-20T15:47:31.688Z,6.05
2023-05-20T15:49:58.487Z,6.38
2023-05-20T15:52:25.238Z,5.60
2023-05-20T15:54:52.006Z,6.38
2023-05-20T15:57:18.972Z,5.78
2023-05-20T15:59:45.753Z,6.05
2023-05-20T16:02:12.501Z,5.88
2023-05-20T16:04:39.230Z,6.25
2023-05-20T16:07:05.978Z,5.90
2023-05-20T16:09:32.702Z,5.70
2023-05-20T16:11:59.439Z,6.20
2023-05-20T16:14:26.147Z,6.13
2023-05-20T16:16:52.927Z,5.30
2023-05-20T16:19:19.743Z,5.90
2023-05-20T16:21:46.572Z,5.90
2023-05-20T16:24:13.546Z,5.63
2023-05-20T16:26:40.490Z,5.70
2023-05-20T16:29:07.269Z,5.55
2023-05-20T16:31:34.046Z,5.68
2023-05-20T16:34:00.816Z,5.78
2023-05-20T16:36:27.549Z,5.65
2023-05-20T16:38:54.303Z,6.13
2023-05-20T16:41:21.504Z,5.72
2023-05-20T16:43:48.230Z,5.60
2023-05-20T16:46:15.182Z,5.40
2023-05-20T16:48:42.632Z,5.57
2023-05-20T16:51:09.652Z,5.40
2023-05-20T16:53:36.929Z,5.60
2023-05-20T16:56:05.969Z,6.15
2023-05-20T16:58:32.731Z,5.60
2023-05-20T17:00:59.606Z,5.57
2023-05-20T17:03:26.739Z,5.40
2023-05-20T17:05:53.480Z,5.68
2023-05-20T17:08:20.158Z,5.47
2023-05-20T17:10:48.522Z,5.10
2023-05-20T17:13:15.842Z,5.28
2023-05-20T17:15:42.654Z,6.18
2023-05-20T17:18:09.454Z,5.68
2023-05-20T17:20:36.394Z,6.00
2023-05-20T17:23:03.362Z,5.53
2023-05-20T17:25:30.120Z,5.90
2023-05-20T17:27:57.037Z,5.85
2023-05-20T17:30:23.737Z,5.28
2023-05-20T17:32:53.125Z,5.38
2023-05-20T17:35:20.892Z,5.45
2023-05-20T17:37:47.698Z,5.55
2023-05-20T17:40:14.435Z,5.70
2023-05-20T17:42:41.273Z,5.85
2023-05-20T17:45:08.614Z,5.82
2023-05-20T17:47:35.334Z,5.85
2023-05-20T17:50:02.790Z,5.95
2023-05-20T17:52:29.624Z,5.60
2023-05-20T17:54:56.467Z,5.50
2023-05-20T17:57:23.211Z,5.75
2023-05-20T17:59:50.781Z,5.65
2023-05-20T18:02:17.652Z,5.43
2023-05-20T18:04:44.364Z,6.00
2023-05-20T18:07:12.970Z,5.50
2023-05-20T18:09:39.676Z,5.53
2023-05-20T18:12:07.395Z,5.57
2023-05-20T18:14:34.124Z,5.60
2023-05-20T18:17:00.987Z,5.43
2023-05-20T18:19:27.834Z,5.80
2023-05-20T18:21:54.821Z,5.90
2023-05-20T18:24:21.516Z,5.95
2023-05-20T18:26:48.278Z,5.55
2023-05-20T18:29:15.026Z,5.78
2023-05-20T18:31:43.552Z,5.22
2023-05-20T18:34:10.626Z,5.80
2023-05-20T18:36:37.650Z,5.38
2023-05-20T18:39:04.791Z,5.45
2023-05-20T18:41:39.524Z,5.32
2023-05-20T18:44:12.527Z,5.22
2023-05-20T18:46:39.509Z,5.70
2023-05-20T18:49:06.684Z,5.45
2023-05-20T18:51:33.823Z,5.65
2023-05-20T18:54:00.552Z,5.80
2023-05-20T18:56:27.486Z,5.97
2023-05-20T18:58:54.321Z,5.60
2023-05-20T19:01:21.894Z,5.70
2023-05-20T19:03:48.660Z,5.80
2023-05-20T19:06:16.342Z,5.88
2023-05-20T19:08:46.085Z,5.57
2023-05-20T19:11:12.806Z,5.20
2023-05-20T19:13:39.510Z,6.22
2023-05-20T19:16:06.452Z,5.07
2023-05-20T19:18:33.177Z,5.63
2023-05-20T19:20:59.901Z,5.65
2023-05-20T19:23:26.608Z,5.38
2023-05-20T19:25:53.375Z,5.60
2023-05-20T19:28:20.116Z,6.00
2023-05-20T19:30:47.053Z,6.20
2023-05-20T19:33:13.750Z,5.93
2023-05-20T19:35:40.535Z,6.13
2023-05-20T19:38:07.223Z,5.60
2023-05-20T19:40:35.067Z,5.55
2023-05-20T19:43:01.820Z,5.90
2023-05-20T19:45:28.532Z,5.60
2023-05-20T19:47:56.160Z,6.10
2023-05-20T19:50:23.063Z,6.03
2023-05-20T19:52:49.789Z,6.18
2023-05-20T19:55:16.509Z,5.57
2023-05-20T19:57:46.461Z,5.78
2023-05-20T20:00:13.830Z,6.03
2023-05-20T20:02:40.949Z,6.10
2023-05-20T20:05:08.734Z,6.28
2023-05-20T20:07:35.537Z,5.82
2023-05-20T20:10:02.365Z,5.95
2023-05-20T20:12:29.127Z,5.90
2023-05-20T20:14:56.245Z,5.57
2023-05-20T20:17:23.641Z,5.88
2023-05-20T20:19:53.285Z,5.32
2023-05-20T20:22:20.290Z,5.90
2023-05-20T20:24:47.232Z,5.65
2023-05-20T20:27:13.919Z,5.90
2023-05-20T20:29:43.363Z,5.63
2023-05-20T20:32:10.234Z,6.10
2023-05-20T20:34:37.377Z,5.82
2023-05-20T20:37:04.249Z,5.90
2023-05-20T20:39:30.970Z,5.50
2023-05-20T20:41:58.789Z,5.55
2023-05-20T20:44:26.585Z,5.80
2023-05-20T20:46:54.858Z,5.65
2023-05-20T20:49:23.054Z,5.70
2023-05-20T20:51:50.909Z,5.90
2023-05-20T20:54:17.681Z,5.45
2023-05-20T20:56:46.862Z,5.63
2023-05-20T20:59:15.588Z,5.65
2023-05-20T21:01:42.835Z,5.70
2023-05-20T21:04:09.693Z,5.25
2023-05-20T21:06:37.867Z,5.90
2023-05-20T21:09:04.745Z,5.80
2023-05-20T21:11:31.759Z,5.35
2023-05-20T21:13:58.467Z,5.60
2023-05-20T21:16:25.294Z,5.68
2023-05-20T21:18:52.090Z,5.95
2023-05-20T21:21:21.547Z,6.28
2023-05-20T21:23:50.796Z,6.03
2023-05-20T21:26:17.674Z,5.60
2023-05-20T21:28:44.370Z,5.55
2023-05-20T21:31:11.269Z,5.70
2023-05-20T21:33:38.099Z,5.53
2023-05-20T21:36:05.409Z,5.20
2023-05-20T21:38:32.169Z,5.75
2023-05-20T21:41:01.063Z,5.60
2023-05-20T21:43:28.336Z,5.78
2023-05-20T21:45:55.455Z,5.07
2023-05-20T21:48:22.194Z,5.72
2023-05-20T21:50:49.004Z,5.68
2023-05-20T21:53:15.729Z,5.45
2023-05-20T21:55:42.469Z,5.30
2023-05-20T21:58:09.150Z,5.45
2023-05-20T22:00:36.391Z,5.47
2023-05-20T22:03:03.193Z,5.50
2023-05-20T22:05:30.026Z,6.20
2023-05-20T22:07:56.720Z,5.72
2023-05-20T22:10:23.845Z,5.50
2023-05-20T22:12:50.967Z,5.57
2023-05-20T22:15:17.787Z,5.45
2023-05-20T22:17:44.748Z,6.13
2023-05-20T22:20:12.270Z,5.82
2023-05-20T22:22:39.301Z,5.65
2023-05-20T22:25:09.374Z,5.80
2023-05-20T22:27:36.096Z,6.15
2023-05-20T22:30:05.904Z,4.93
2023-05-20T22:32:33.128Z,5.97
2023-05-20T22:34:59.973Z,5.60
2023-05-20T22:37:28.702Z,5.70
2023-05-20T22:39:56.499Z,5.38
2023-05-20T22:42:23.248Z,5.88
2023-05-20T22:44:50.215Z,5.72
2023-05-20T22:47:17.012Z,5.95
2023-05-20T22:49:43.820Z,5.53
2023-05-20T22:52:10.607Z,5.72
2023-05-20T22:54:37.343Z,5.80
2023-05-20T22:57:05.384Z,5.63
2023-05-20T22:59:32.846Z,5.82
2023-05-20T23:01:59.627Z,5.90
2023-05-20T23:04:26.484Z,5.72
2023-05-20T23:06:53.791Z,5.32
2023-05-20T23:09:21.073Z,5.40
2023-05-20T23:11:47.892Z,5.43
2023-05-20T23:14:14.650Z,5.18
2023-05-20T23:16:42.180Z,5.35
2023-05-20T23:19:09.188Z,5.97
2023-05-20T23:21:37.331Z,5.53
2023-05-20T23:24:04.595Z,5.40
2023-05-20T23:26:31.501Z,5.70
2023-05-20T23:28:58.267Z,5.38
2023-05-20T23:31:26.870Z,4.93
2023-05-20T23:33:54.209Z,6.25
2023-05-20T23:36:22.869Z,5.55
2023-05-20T23:38:49.755Z,4.88
2023-05-20T23:41:16.465Z,5.40
2023-05-20T23:43:43.164Z,5.32
2023-05-20T23:46:10.213Z,5.00
2023-05-20T23:48:37.043Z,5.40
2023-05-20T23:51:03.841Z,5.40
2023-05-20T23:53:30.654Z,5.88
2023-05-20T23:55:57.409Z,5.40
2023-05-20T23:58:24.403Z,4.97
